sensor_id;sensor_type;location;lat;lon;timestamp;pressure;altitude;pressure_sealevel;temperature;humidity
60611;BME280;46439;51.164;13.572;2024-01-30T00:00:58;101644.01;;;5.87;100.00
60611;BME280;46439;51.164;13.572;2024-01-30T00:03:26;101641.34;;;5.87;100.00
60611;BME280;46439;51.164;13.572;2024-01-30T00:05:54;101639.41;;;5.92;100.00
60611;BME280;46439;51.164;13.572;2024-01-30T00:08:22;101638.58;;;5.88;100.00
60611;BME280;46439;51.164;13.572;2024-01-30T00:10:50;101639.79;;;5.84;100.00
60611;BME280;46439;51.164;13.572;2024-01-30T00:13:18;101635.42;;;5.80;100.00
60611;BME280;46439;51.164;13.572;2024-01-30T00:15:47;101638.70;;;5.74;100.00
60611;BME280;46439;51.164;13.572;2024-01-30T00:18:16;101636.77;;;5.68;100.00
60611;BME280;46439;51.164;13.572;2024-01-30T00:20:45;101640.00;;;5.68;100.00
60611;BME280;46439;51.164;13.572;2024-01-30T00:23:14;101633.91;;;5.73;100.00
60611;BME280;46439;51.164;13.572;2024-01-30T00:25:43;101635.59;;;5.80;100.00
60611;BME280;46439;51.164;13.572;2024-01-30T00:28:11;101634.44;;;5.86;100.00
60611;BME280;46439;51.164;13.572;2024-01-30T00:30:39;101635.17;;;5.94;100.00
60611;BME280;46439;51.164;13.572;2024-01-30T00:33:08;101637.82;;;6.00;100.00
60611;BME280;46439;51.164;13.572;2024-01-30T00:35:36;101636.05;;;6.05;100.00
60611;BME280;46439;51.164;13.572;2024-01-30T00:38:05;101632.19;;;5.98;100.00
60611;BME280;46439;51.164;13.572;2024-01-30T00:40:38;101632.32;;;5.88;100.00
60611;BME280;46439;51.164;13.572;2024-01-30T00:43:07;101629.98;;;5.99;100.00
60611;BME280;46439;51.164;13.572;2024-01-30T00:45:35;101625.42;;;5.95;100.00
60611;BME280;46439;51.164;13.572;2024-01-30T00:48:04;101628.44;;;6.01;100.00
60611;BME280;46439;51.164;13.572;2024-01-30T00:50:33;101626.68;;;6.03;100.00
60611;BME280;46439;51.164;13.572;2024-01-30T00:53:01;101628.05;;;5.96;100.00
60611;BME280;46439;51.164;13.572;2024-01-30T00:55:29;101630.27;;;5.95;100.00
60611;BME280;46439;51.164;13.572;2024-01-30T00:57:57;101629.46;;;5.93;100.00
60611;BME280;46439;51.164;13.572;2024-01-30T01:00:25;101628.48;;;5.95;100.00
60611;BME280;46439;51.164;13.572;2024-01-30T01:02:57;101630.71;;;5.97;100.00
60611;BME280;46439;51.164;13.572;2024-01-30T01:05:25;101628.82;;;5.92;100.00
60611;BME280;46439;51.164;13.572;2024-01-30T01:07:53;101627.59;;;5.82;100.00
60611;BME280;46439;51.164;13.572;2024-01-30T01:10:21;101629.36;;;5.69;100.00
60611;BME280;46439;51.164;13.572;2024-01-30T01:12:50;101629.65;;;5.70;100.00
60611;BME280;46439;51.164;13.572;2024-01-30T01:15:19;101625.73;;;5.75;100.00
60611;BME280;46439;51.164;13.572;2024-01-30T01:17:47;101625.45;;;5.69;100.00
60611;BME280;46439;51.164;13.572;2024-01-30T01:20:15;101629.73;;;5.64;100.00
60611;BME280;46439;51.164;13.572;2024-01-30T01:22:43;101627.48;;;5.47;100.00
60611;BME280;46439;51.164;13.572;2024-01-30T01:25:12;101626.56;;;5.50;100.00
60611;BME280;46439;51.164;13.572;2024-01-30T01:27:40;101624.23;;;5.37;100.00
60611;BME280;46439;51.164;13.572;2024-01-30T01:30:11;101628.64;;;5.38;100.00
60611;BME280;46439;51.164;13.572;2024-01-30T01:32:42;101627.61;;;5.29;100.00
60611;BME280;46439;51.164;13.572;2024-01-30T01:35:17;101626.99;;;5.41;100.00
60611;BME280;46439;51.164;13.572;2024-01-30T01:37:45;101629.41;;;5.37;100.00
60611;BME280;46439;51.164;13.572;2024-01-30T01:40:13;101631.07;;;5.42;100.00
60611;BME280;46439;51.164;13.572;2024-01-30T01:42:41;101627.39;;;5.38;100.00
60611;BME280;46439;51.164;13.572;2024-01-30T01:45:11;101624.88;;;5.44;100.00
60611;BME280;46439;51.164;13.572;2024-01-30T01:47:39;101623.96;;;5.38;100.00
60611;BME280;46439;51.164;13.572;2024-01-30T01:50:09;101625.98;;;5.35;100.00
60611;BME280;46439;51.164;13.572;2024-01-30T01:52:37;101624.02;;;5.37;100.00
60611;BME280;46439;51.164;13.572;2024-01-30T01:55:08;101622.17;;;5.41;100.00
60611;BME280;46439;51.164;13.572;2024-01-30T01:57:36;101623.37;;;5.31;100.00
60611;BME280;46439;51.164;13.572;2024-01-30T02:00:06;101618.36;;;5.34;100.00
60611;BME280;46439;51.164;13.572;2024-01-30T02:02:37;101619.32;;;5.38;100.00
60611;BME280;46439;51.164;13.572;2024-01-30T02:05:07;101612.95;;;5.40;100.00
60611;BME280;46439;51.164;13.572;2024-01-30T02:07:36;101607.70;;;5.42;100.00
60611;BME280;46439;51.164;13.572;2024-01-30T02:10:06;101608.45;;;5.41;100.00
60611;BME280;46439;51.164;13.572;2024-01-30T02:12:35;101609.60;;;5.42;100.00
60611;BME280;46439;51.164;13.572;2024-01-30T02:15:05;101609.32;;;5.41;100.00
60611;BME280;46439;51.164;13.572;2024-01-30T02:17:33;101610.70;;;5.42;100.00
60611;BME280;46439;51.164;13.572;2024-01-30T02:20:02;101606.62;;;5.44;100.00
60611;BME280;46439;51.164;13.572;2024-01-30T02:22:32;101602.02;;;5.44;100.00
60611;BME280;46439;51.164;13.572;2024-01-30T02:25:00;101605.64;;;5.43;100.00
60611;BME280;46439;51.164;13.572;2024-01-30T02:27:28;101606.16;;;5.37;100.00
60611;BME280;46439;51.164;13.572;2024-01-30T02:29:56;101602.38;;;5.28;100.00
60611;BME280;46439;51.164;13.572;2024-01-30T02:32:24;101606.71;;;5.27;100.00
60611;BME280;46439;51.164;13.572;2024-01-30T02:34:53;101604.48;;;5.09;100.00
60611;BME280;46439;51.164;13.572;2024-01-30T02:37:21;101605.38;;;5.04;100.00
60611;BME280;46439;51.164;13.572;2024-01-30T02:39:49;101603.25;;;5.04;100.00
60611;BME280;46439;51.164;13.572;2024-01-30T02:42:17;101604.84;;;5.01;100.00
60611;BME280;46439;51.164;13.572;2024-01-30T02:44:46;101602.38;;;4.98;100.00
60611;BME280;46439;51.164;13.572;2024-01-30T02:47:14;101597.83;;;4.99;100.00
60611;BME280;46439;51.164;13.572;2024-01-30T02:49:42;101601.69;;;5.03;100.00
60611;BME280;46439;51.164;13.572;2024-01-30T02:52:10;101597.15;;;5.12;100.00
60611;BME280;46439;51.164;13.572;2024-01-30T02:54:39;101598.61;;;5.14;100.00
60611;BME280;46439;51.164;13.572;2024-01-30T02:57:07;101599.20;;;5.16;100.00
60611;BME280;46439;51.164;13.572;2024-01-30T02:59:36;101596.74;;;5.18;100.00
60611;BME280;46439;51.164;13.572;2024-01-30T03:02:05;101598.02;;;5.18;100.00
60611;BME280;46439;51.164;13.572;2024-01-30T03:04:33;101594.48;;;5.20;100.00
60611;BME280;46439;51.164;13.572;2024-01-30T03:07:01;101595.98;;;5.19;100.00
60611;BME280;46439;51.164;13.572;2024-01-30T03:09:29;101592.31;;;5.18;100.00
60611;BME280;46439;51.164;13.572;2024-01-30T03:11:58;101592.33;;;5.18;100.00
60611;BME280;46439;51.164;13.572;2024-01-30T03:14:26;101592.86;;;5.10;100.00
60611;BME280;46439;51.164;13.572;2024-01-30T03:16:54;101591.58;;;5.00;100.00
60611;BME280;46439;51.164;13.572;2024-01-30T03:19:22;101589.15;;;5.07;100.00
60611;BME280;46439;51.164;13.572;2024-01-30T03:21:50;101591.88;;;5.06;100.00
60611;BME280;46439;51.164;13.572;2024-01-30T03:24:19;101592.88;;;4.99;100.00
60611;BME280;46439;51.164;13.572;2024-01-30T03:26:47;101591.45;;;5.02;100.00
60611;BME280;46439;51.164;13.572;2024-01-30T03:29:15;101593.27;;;4.95;100.00
60611;BME280;46439;51.164;13.572;2024-01-30T03:31:44;101589.77;;;4.92;100.00
60611;BME280;46439;51.164;13.572;2024-01-30T03:34:12;101589.58;;;4.86;100.00
60611;BME280;46439;51.164;13.572;2024-01-30T03:36:40;101585.98;;;4.87;100.00
60611;BME280;46439;51.164;13.572;2024-01-30T03:39:08;101587.45;;;4.89;100.00
60611;BME280;46439;51.164;13.572;2024-01-30T03:41:37;101586.86;;;4.87;100.00
60611;BME280;46439;51.164;13.572;2024-01-30T03:44:05;101583.39;;;4.91;100.00
60611;BME280;46439;51.164;13.572;2024-01-30T03:46:34;101586.11;;;4.93;100.00
60611;BME280;46439;51.164;13.572;2024-01-30T03:49:02;101587.59;;;4.92;100.00
60611;BME280;46439;51.164;13.572;2024-01-30T03:51:30;101583.89;;;4.92;100.00
60611;BME280;46439;51.164;13.572;2024-01-30T03:53:58;101583.57;;;4.91;100.00
60611;BME280;46439;51.164;13.572;2024-01-30T03:56:26;101581.99;;;4.91;100.00
60611;BME280;46439;51.164;13.572;2024-01-30T03:58:54;101586.83;;;4.91;100.00
60611;BME280;46439;51.164;13.572;2024-01-30T04:01:23;101587.23;;;4.93;100.00
60611;BME280;46439;51.164;13.572;2024-01-30T04:03:51;101585.08;;;4.92;100.00
60611;BME280;46439;51.164;13.572;2024-01-30T04:06:19;101580.70;;;4.94;100.00
60611;BME280;46439;51.164;13.572;2024-01-30T04:08:48;101579.94;;;4.95;100.00
60611;BME280;46439;51.164;13.572;2024-01-30T04:11:17;101576.52;;;4.96;100.00
60611;BME280;46439;51.164;13.572;2024-01-30T04:13:46;101578.37;;;5.00;100.00
60611;BME280;46439;51.164;13.572;2024-01-30T04:16:21;101577.21;;;5.04;100.00
60611;BME280;46439;51.164;13.572;2024-01-30T04:18:50;101580.11;;;4.98;100.00
60611;BME280;46439;51.164;13.572;2024-01-30T04:21:20;101582.38;;;4.88;100.00
60611;BME280;46439;51.164;13.572;2024-01-30T04:23:48;101580.05;;;4.93;100.00
60611;BME280;46439;51.164;13.572;2024-01-30T04:26:16;101580.73;;;4.94;100.00
60611;BME280;46439;51.164;13.572;2024-01-30T04:28:45;101581.52;;;4.98;100.00
60611;BME280;46439;51.164;13.572;2024-01-30T04:31:13;101579.09;;;4.99;100.00
60611;BME280;46439;51.164;13.572;2024-01-30T04:33:42;101578.41;;;5.02;100.00
60611;BME280;46439;51.164;13.572;2024-01-30T04:36:11;101578.30;;;4.93;100.00
60611;BME280;46439;51.164;13.572;2024-01-30T04:38:39;101577.41;;;4.85;100.00
60611;BME280;46439;51.164;13.572;2024-01-30T04:41:08;101576.20;;;4.81;100.00
60611;BME280;46439;51.164;13.572;2024-01-30T04:43:36;101574.96;;;4.81;100.00
60611;BME280;46439;51.164;13.572;2024-01-30T04:46:05;101572.45;;;4.89;100.00
60611;BME280;46439;51.164;13.572;2024-01-30T04:48:33;101570.93;;;4.88;100.00
60611;BME280;46439;51.164;13.572;2024-01-30T04:51:01;101570.94;;;4.85;100.00
60611;BME280;46439;51.164;13.572;2024-01-30T04:53:32;101571.84;;;4.86;100.00
60611;BME280;46439;51.164;13.572;2024-01-30T04:56:00;101568.58;;;4.86;100.00
60611;BME280;46439;51.164;13.572;2024-01-30T04:58:28;101565.24;;;4.88;100.00
60611;BME280;46439;51.164;13.572;2024-01-30T05:00:56;101563.80;;;4.88;100.00
60611;BME280;46439;51.164;13.572;2024-01-30T05:03:25;101561.69;;;4.85;100.00
60611;BME280;46439;51.164;13.572;2024-01-30T05:05:53;101560.41;;;4.86;100.00
60611;BME280;46439;51.164;13.572;2024-01-30T05:08:21;101560.92;;;4.86;100.00
60611;BME280;46439;51.164;13.572;2024-01-30T05:10:49;101557.27;;;4.84;100.00
60611;BME280;46439;51.164;13.572;2024-01-30T05:13:17;101555.30;;;4.85;100.00
60611;BME280;46439;51.164;13.572;2024-01-30T05:15:45;101557.52;;;4.72;100.00
60611;BME280;46439;51.164;13.572;2024-01-30T05:18:14;101555.48;;;4.60;100.00
60611;BME280;46439;51.164;13.572;2024-01-30T05:20:47;101554.73;;;4.58;100.00
60611;BME280;46439;51.164;13.572;2024-01-30T05:23:17;101555.30;;;4.66;100.00
60611;BME280;46439;51.164;13.572;2024-01-30T05:25:45;101554.42;;;4.68;100.00
60611;BME280;46439;51.164;13.572;2024-01-30T05:28:13;101554.86;;;4.61;100.00
60611;BME280;46439;51.164;13.572;2024-01-30T05:30:42;101559.79;;;4.68;100.00
60611;BME280;46439;51.164;13.572;2024-01-30T05:33:10;101556.73;;;4.71;100.00
60611;BME280;46439;51.164;13.572;2024-01-30T05:35:40;101557.64;;;4.68;100.00
60611;BME280;46439;51.164;13.572;2024-01-30T05:38:08;101557.96;;;4.69;100.00
60611;BME280;46439;51.164;13.572;2024-01-30T05:40:36;101556.05;;;4.68;100.00
60611;BME280;46439;51.164;13.572;2024-01-30T05:43:05;101556.95;;;4.67;100.00
60611;BME280;46439;51.164;13.572;2024-01-30T05:45:33;101551.41;;;4.68;100.00
60611;BME280;46439;51.164;13.572;2024-01-30T05:48:01;101552.66;;;4.65;100.00
60611;BME280;46439;51.164;13.572;2024-01-30T05:50:30;101553.42;;;4.67;100.00
60611;BME280;46439;51.164;13.572;2024-01-30T05:52:58;101553.82;;;4.75;100.00
60611;BME280;46439;51.164;13.572;2024-01-30T05:55:26;101555.80;;;4.77;100.00
60611;BME280;46439;51.164;13.572;2024-01-30T05:57:54;101558.46;;;4.74;100.00
60611;BME280;46439;51.164;13.572;2024-01-30T06:00:23;101560.02;;;4.78;100.00
60611;BME280;46439;51.164;13.572;2024-01-30T06:02:51;101559.31;;;4.72;100.00
60611;BME280;46439;51.164;13.572;2024-01-30T06:05:20;101559.27;;;4.62;100.00
60611;BME280;46439;51.164;13.572;2024-01-30T06:07:48;101555.79;;;4.58;100.00
60611;BME280;46439;51.164;13.572;2024-01-30T06:10:16;101556.30;;;4.56;100.00
60611;BME280;46439;51.164;13.572;2024-01-30T06:12:44;101556.39;;;4.60;100.00
60611;BME280;46439;51.164;13.572;2024-01-30T06:15:13;101558.77;;;4.64;100.00
60611;BME280;46439;51.164;13.572;2024-01-30T06:17:41;101561.23;;;4.78;100.00
60611;BME280;46439;51.164;13.572;2024-01-30T06:20:10;101557.90;;;4.80;100.00
60611;BME280;46439;51.164;13.572;2024-01-30T06:22:38;101561.42;;;4.81;100.00
60611;BME280;46439;51.164;13.572;2024-01-30T06:25:08;101562.06;;;4.76;100.00
60611;BME280;46439;51.164;13.572;2024-01-30T06:27:36;101558.28;;;4.72;100.00
60611;BME280;46439;51.164;13.572;2024-01-30T06:30:05;101557.89;;;4.67;100.00
60611;BME280;46439;51.164;13.572;2024-01-30T06:32:36;101557.89;;;4.70;100.00
60611;BME280;46439;51.164;13.572;2024-01-30T06:35:08;101555.66;;;4.65;100.00
60611;BME280;46439;51.164;13.572;2024-01-30T06:37:38;101554.48;;;4.61;100.00
60611;BME280;46439;51.164;13.572;2024-01-30T06:40:11;101554.23;;;4.60;100.00
60611;BME280;46439;51.164;13.572;2024-01-30T06:42:44;101550.23;;;4.58;100.00
60611;BME280;46439;51.164;13.572;2024-01-30T06:45:16;101549.06;;;4.54;100.00
60611;BME280;46439;51.164;13.572;2024-01-30T06:47:52;101551.30;;;4.58;100.00
60611;BME280;46439;51.164;13.572;2024-01-30T06:50:21;101552.09;;;4.57;100.00
60611;BME280;46439;51.164;13.572;2024-01-30T06:52:55;101553.77;;;4.42;100.00
60611;BME280;46439;51.164;13.572;2024-01-30T06:55:28;101551.40;;;4.43;100.00
60611;BME280;46439;51.164;13.572;2024-01-30T06:58:01;101553.40;;;4.42;100.00
60611;BME280;46439;51.164;13.572;2024-01-30T07:00:30;101555.48;;;4.46;100.00
60611;BME280;46439;51.164;13.572;2024-01-30T07:02:59;101560.34;;;4.46;100.00
60611;BME280;46439;51.164;13.572;2024-01-30T07:05:36;101554.48;;;4.56;100.00
60611;BME280;46439;51.164;13.572;2024-01-30T07:08:10;101554.23;;;4.65;100.00
60611;BME280;46439;51.164;13.572;2024-01-30T07:10:39;101557.08;;;4.71;100.00
60611;BME280;46439;51.164;13.572;2024-01-30T07:13:15;101556.77;;;4.73;100.00
60611;BME280;46439;51.164;13.572;2024-01-30T07:15:46;101560.38;;;4.59;100.00
60611;BME280;46439;51.164;13.572;2024-01-30T07:18:33;101563.85;;;4.55;100.00
60611;BME280;46439;51.164;13.572;2024-01-30T07:21:06;101565.04;;;4.53;100.00
60611;BME280;46439;51.164;13.572;2024-01-30T07:23:37;101564.91;;;4.60;100.00
60611;BME280;46439;51.164;13.572;2024-01-30T07:26:12;101559.70;;;4.69;100.00
60611;BME280;46439;51.164;13.572;2024-01-30T07:28:49;101559.09;;;4.73;100.00
60611;BME280;46439;51.164;13.572;2024-01-30T07:31:21;101553.97;;;4.75;100.00
60611;BME280;46439;51.164;13.572;2024-01-30T07:33:51;101554.83;;;4.78;100.00
60611;BME280;46439;51.164;13.572;2024-01-30T07:36:20;101556.29;;;4.80;100.00
60611;BME280;46439;51.164;13.572;2024-01-30T07:38:49;101555.19;;;4.80;100.00
60611;BME280;46439;51.164;13.572;2024-01-30T07:41:18;101560.41;;;4.83;100.00
60611;BME280;46439;51.164;13.572;2024-01-30T07:43:51;101560.80;;;4.93;100.00
60611;BME280;46439;51.164;13.572;2024-01-30T07:46:22;101562.43;;;5.29;100.00
60611;BME280;46439;51.164;13.572;2024-01-30T07:48:54;101563.52;;;5.40;100.00
60611;BME280;46439;51.164;13.572;2024-01-30T07:51:22;101561.10;;;5.39;100.00
60611;BME280;46439;51.164;13.572;2024-01-30T07:53:54;101561.69;;;5.38;100.00
60611;BME280;46439;51.164;13.572;2024-01-30T07:56:24;101561.73;;;5.37;100.00
60611;BME280;46439;51.164;13.572;2024-01-30T07:58:54;101563.08;;;5.36;100.00
60611;BME280;46439;51.164;13.572;2024-01-30T08:01:26;101564.48;;;5.36;100.00
60611;BME280;46439;51.164;13.572;2024-01-30T08:03:54;101561.55;;;5.32;100.00
60611;BME280;46439;51.164;13.572;2024-01-30T08:06:23;101563.27;;;5.28;100.00
60611;BME280;46439;51.164;13.572;2024-01-30T08:08:52;101558.08;;;5.23;100.00
60611;BME280;46439;51.164;13.572;2024-01-30T08:11:23;101563.30;;;5.28;100.00
60611;BME280;46439;51.164;13.572;2024-01-30T08:13:57;101568.36;;;5.34;100.00
60611;BME280;46439;51.164;13.572;2024-01-30T08:16:26;101566.21;;;5.45;100.00
60611;BME280;46439;51.164;13.572;2024-01-30T08:18:59;101571.80;;;5.44;100.00
60611;BME280;46439;51.164;13.572;2024-01-30T08:21:37;101577.16;;;5.59;100.00
60611;BME280;46439;51.164;13.572;2024-01-30T08:24:08;101576.79;;;5.60;100.00
60611;BME280;46439;51.164;13.572;2024-01-30T08:26:39;101580.77;;;5.67;100.00
60611;BME280;46439;51.164;13.572;2024-01-30T08:29:18;101580.95;;;5.69;100.00
60611;BME280;46439;51.164;13.572;2024-01-30T08:31:49;101588.83;;;5.74;100.00
60611;BME280;46439;51.164;13.572;2024-01-30T08:34:23;101594.18;;;5.85;100.00
60611;BME280;46439;51.164;13.572;2024-01-30T08:37:02;101597.98;;;5.94;100.00
60611;BME280;46439;51.164;13.572;2024-01-30T08:39:35;101596.49;;;5.98;100.00
60611;BME280;46439;51.164;13.572;2024-01-30T08:42:08;101595.16;;;5.99;100.00
60611;BME280;46439;51.164;13.572;2024-01-30T08:44:46;101598.38;;;6.02;100.00
60611;BME280;46439;51.164;13.572;2024-01-30T08:47:27;101598.50;;;6.02;100.00
60611;BME280;46439;51.164;13.572;2024-01-30T08:49:59;101594.62;;;6.04;100.00
60611;BME280;46439;51.164;13.572;2024-01-30T08:52:33;101598.27;;;6.08;100.00
60611;BME280;46439;51.164;13.572;2024-01-30T08:55:08;101592.70;;;6.11;100.00
60611;BME280;46439;51.164;13.572;2024-01-30T08:57:43;101588.36;;;6.17;100.00
60611;BME280;46439;51.164;13.572;2024-01-30T09:00:16;101580.17;;;6.24;100.00
60611;BME280;46439;51.164;13.572;2024-01-30T09:02:49;101578.45;;;6.30;100.00
60611;BME280;46439;51.164;13.572;2024-01-30T09:05:22;101574.36;;;6.32;100.00
60611;BME280;46439;51.164;13.572;2024-01-30T09:07:55;101572.21;;;6.35;100.00
60611;BME280;46439;51.164;13.572;2024-01-30T09:10:38;101567.30;;;6.24;100.00
60611;BME280;46439;51.164;13.572;2024-01-30T09:13:11;101557.45;;;6.26;100.00
60611;BME280;46439;51.164;13.572;2024-01-30T09:15:52;101559.89;;;6.42;100.00
60611;BME280;46439;51.164;13.572;2024-01-30T09:18:22;101559.94;;;6.49;100.00
60611;BME280;46439;51.164;13.572;2024-01-30T09:20:50;101557.45;;;6.53;100.00
60611;BME280;46439;51.164;13.572;2024-01-30T09:23:19;101564.16;;;6.60;100.00
60611;BME280;46439;51.164;13.572;2024-01-30T09:25:49;101562.84;;;6.60;100.00
60611;BME280;46439;51.164;13.572;2024-01-30T09:28:20;101570.27;;;6.66;100.00
60611;BME280;46439;51.164;13.572;2024-01-30T09:30:52;101571.87;;;6.71;100.00
60611;BME280;46439;51.164;13.572;2024-01-30T09:33:25;101568.05;;;6.75;100.00
60611;BME280;46439;51.164;13.572;2024-01-30T09:35:57;101561.80;;;6.87;100.00
60611;BME280;46439;51.164;13.572;2024-01-30T09:38:31;101557.43;;;6.95;100.00
60611;BME280;46439;51.164;13.572;2024-01-30T09:41:12;101556.36;;;6.99;100.00
60611;BME280;46439;51.164;13.572;2024-01-30T09:43:41;101559.33;;;7.03;100.00
60611;BME280;46439;51.164;13.572;2024-01-30T09:46:25;101549.52;;;7.04;100.00
60611;BME280;46439;51.164;13.572;2024-01-30T09:48:59;101555.81;;;7.06;100.00
60611;BME280;46439;51.164;13.572;2024-01-30T09:51:29;101555.02;;;7.10;100.00
60611;BME280;46439;51.164;13.572;2024-01-30T09:53:58;101558.44;;;7.17;100.00
60611;BME280;46439;51.164;13.572;2024-01-30T09:56:27;101561.92;;;7.25;100.00
60611;BME280;46439;51.164;13.572;2024-01-30T09:58:56;101560.95;;;7.31;100.00
60611;BME280;46439;51.164;13.572;2024-01-30T10:01:27;101558.03;;;7.39;100.00
60611;BME280;46439;51.164;13.572;2024-01-30T10:04:07;101558.46;;;7.47;100.00
60611;BME280;46439;51.164;13.572;2024-01-30T10:07:01;101558.02;;;7.50;100.00
60611;BME280;46439;51.164;13.572;2024-01-30T10:09:33;101558.48;;;7.53;100.00
60611;BME280;46439;51.164;13.572;2024-01-30T10:12:04;101554.73;;;7.65;100.00
60611;BME280;46439;51.164;13.572;2024-01-30T10:14:37;101548.43;;;7.70;100.00
60611;BME280;46439;51.164;13.572;2024-01-30T10:17:10;101542.11;;;7.77;100.00
60611;BME280;46439;51.164;13.572;2024-01-30T10:19:43;101541.66;;;7.92;100.00
60611;BME280;46439;51.164;13.572;2024-01-30T10:22:13;101537.00;;;7.99;100.00
60611;BME280;46439;51.164;13.572;2024-01-30T10:24:43;101536.73;;;8.04;100.00
60611;BME280;46439;51.164;13.572;2024-01-30T10:27:14;101533.59;;;8.12;100.00
60611;BME280;46439;51.164;13.572;2024-01-30T10:29:53;101525.70;;;8.21;100.00
60611;BME280;46439;51.164;13.572;2024-01-30T10:32:31;101527.38;;;8.32;100.00
60611;BME280;46439;51.164;13.572;2024-01-30T10:35:02;101528.34;;;8.42;100.00
60611;BME280;46439;51.164;13.572;2024-01-30T10:37:33;101522.23;;;8.53;100.00
60611;BME280;46439;51.164;13.572;2024-01-30T10:40:09;101520.02;;;8.62;100.00
60611;BME280;46439;51.164;13.572;2024-01-30T10:42:45;101521.86;;;8.59;100.00
60611;BME280;46439;51.164;13.572;2024-01-30T10:45:16;101515.77;;;8.57;100.00
60611;BME280;46439;51.164;13.572;2024-01-30T10:47:52;101515.34;;;8.69;100.00
60611;BME280;46439;51.164;13.572;2024-01-30T10:50:37;101510.38;;;8.71;100.00
60611;BME280;46439;51.164;13.572;2024-01-30T10:53:14;101507.01;;;8.68;100.00
60611;BME280;46439;51.164;13.572;2024-01-30T10:55:47;101499.03;;;8.71;100.00
60611;BME280;46439;51.164;13.572;2024-01-30T10:58:26;101491.67;;;8.66;100.00
60611;BME280;46439;51.164;13.572;2024-01-30T11:00:59;101494.86;;;8.71;100.00
60611;BME280;46439;51.164;13.572;2024-01-30T11:03:30;101494.15;;;8.74;100.00
60611;BME280;46439;51.164;13.572;2024-01-30T11:06:02;101487.92;;;8.64;100.00
60611;BME280;46439;51.164;13.572;2024-01-30T11:08:35;101489.07;;;8.66;100.00
60611;BME280;46439;51.164;13.572;2024-01-30T11:11:12;101484.08;;;8.76;100.00
60611;BME280;46439;51.164;13.572;2024-01-30T11:13:45;101477.59;;;8.74;100.00
60611;BME280;46439;51.164;13.572;2024-01-30T11:16:16;101480.02;;;8.83;100.00
60611;BME280;46439;51.164;13.572;2024-01-30T11:18:51;101480.11;;;8.87;100.00
60611;BME280;46439;51.164;13.572;2024-01-30T11:21:44;101477.84;;;8.86;100.00
60611;BME280;46439;51.164;13.572;2024-01-30T11:24:16;101474.65;;;8.77;100.00
60611;BME280;46439;51.164;13.572;2024-01-30T11:26:46;101477.42;;;8.74;100.00
60611;BME280;46439;51.164;13.572;2024-01-30T11:29:20;101466.91;;;8.73;100.00
60611;BME280;46439;51.164;13.572;2024-01-30T11:31:58;101464.06;;;8.71;100.00
60611;BME280;46439;51.164;13.572;2024-01-30T11:34:28;101463.96;;;8.74;100.00
60611;BME280;46439;51.164;13.572;2024-01-30T11:37:01;101462.07;;;8.79;100.00
60611;BME280;46439;51.164;13.572;2024-01-30T11:39:35;101461.54;;;8.79;100.00
60611;BME280;46439;51.164;13.572;2024-01-30T11:42:07;101458.16;;;8.79;100.00
60611;BME280;46439;51.164;13.572;2024-01-30T11:44:45;101454.77;;;8.79;100.00
60611;BME280;46439;51.164;13.572;2024-01-30T11:47:27;101454.90;;;8.66;100.00
60611;BME280;46439;51.164;13.572;2024-01-30T11:50:00;101452.86;;;8.58;100.00
60611;BME280;46439;51.164;13.572;2024-01-30T11:52:30;101449.00;;;8.62;100.00
60611;BME280;46439;51.164;13.572;2024-01-30T11:55:09;101444.52;;;8.73;100.00
60611;BME280;46439;51.164;13.572;2024-01-30T11:57:45;101447.86;;;8.86;100.00
60611;BME280;46439;51.164;13.572;2024-01-30T12:00:21;101448.32;;;8.93;100.00
60611;BME280;46439;51.164;13.572;2024-01-30T12:02:55;101447.41;;;8.96;100.00
60611;BME280;46439;51.164;13.572;2024-01-30T12:05:28;101452.17;;;8.96;100.00
60611;BME280;46439;51.164;13.572;2024-01-30T12:08:05;101456.94;;;8.97;100.00
60611;BME280;46439;51.164;13.572;2024-01-30T12:10:35;101453.00;;;8.97;100.00
60611;BME280;46439;51.164;13.572;2024-01-30T12:13:07;101449.89;;;8.98;100.00
60611;BME280;46439;51.164;13.572;2024-01-30T12:15:38;101446.33;;;9.00;100.00
60611;BME280;46439;51.164;13.572;2024-01-30T12:18:10;101449.80;;;9.07;100.00
60611;BME280;46439;51.164;13.572;2024-01-30T12:20:47;101447.52;;;9.15;100.00
60611;BME280;46439;51.164;13.572;2024-01-30T12:23:26;101446.27;;;9.19;100.00
60611;BME280;46439;51.164;13.572;2024-01-30T12:25:57;101448.42;;;9.23;100.00
60611;BME280;46439;51.164;13.572;2024-01-30T12:28:27;101447.44;;;9.20;100.00
60611;BME280;46439;51.164;13.572;2024-01-30T12:31:00;101445.52;;;9.26;100.00
60611;BME280;46439;51.164;13.572;2024-01-30T12:33:32;101442.42;;;9.27;100.00
60611;BME280;46439;51.164;13.572;2024-01-30T12:36:05;101445.28;;;9.24;100.00
60611;BME280;46439;51.164;13.572;2024-01-30T12:38:34;101441.77;;;9.25;100.00
60611;BME280;46439;51.164;13.572;2024-01-30T12:41:02;101440.70;;;9.17;100.00
60611;BME280;46439;51.164;13.572;2024-01-30T12:43:32;101440.80;;;9.29;100.00
60611;BME280;46439;51.164;13.572;2024-01-30T12:46:07;101434.73;;;9.26;100.00
60611;BME280;46439;51.164;13.572;2024-01-30T12:48:38;101429.15;;;9.26;100.00
60611;BME280;46439;51.164;13.572;2024-01-30T12:51:12;101426.95;;;9.29;100.00
60611;BME280;46439;51.164;13.572;2024-01-30T12:53:42;101424.11;;;9.28;100.00
60611;BME280;46439;51.164;13.572;2024-01-30T12:56:14;101422.07;;;9.23;100.00
60611;BME280;46439;51.164;13.572;2024-01-30T12:58:47;101419.63;;;9.07;100.00